Latest Coastal Weather Observations for Cape Grim

IDV60701

Issued at 5:22 am EDT Tuesday 28 March 2017 (issued every 10 minutes, with the page automatically refreshed every 10 minutes)

About coastal observations | Map of coastal stations | Coastal observations for VIC | Marine services | Other Formats
Station Details ID: 091331 Name: CAPE GRIM Lat: -40.68 Lon: 144.69 Height: 86.0 m
Data from the previous 72 hours. | See also: Recent months at Cape Grim
Date/Time
EDT
Temp
°C
Wind Pressure Rain since
9am
mm
Weather Cloud Vis
km
Sea
Height
m
Swell
Dir  Spd
kts
Gust
kts
hPa Trend Height
m
Period
s
Dir
28/05:00am 16.1 WNW 21 26 1009.0 - 3.2 - Partly cloudy - - - - -
28/04:30am 16.1 WNW 21 27 1008.9 - 3.2 - - - - - - -
28/04:00am 15.9 W 22 27 1008.8 - 3.2 - Partly cloudy - - - - -
28/03:30am 16.0 WNW 21 27 1008.7 - 3.2 - Partly cloudy - - - - -
28/03:00am 16.0 W 21 29 1008.7 - 3.2 - - - - - - -
28/02:48am 16.1 W 20 30 1008.7 - 3.2 - Partly cloudy - - - - -
28/02:30am 16.0 W 22 28 1008.8 - 3.2 - Partly cloudy - - - - -
28/02:11am 16.3 W 19 29 1008.9 - 3.2 - Partly cloudy - - - - -
28/02:00am 16.1 W 20 26 1009.0 - 3.2 - Partly cloudy - - - - -
28/01:30am 16.0 W 19 27 1009.1 - 3.2 - Partly cloudy - - - - -
28/01:00am 16.1 W 22 30 1009.2 - 3.2 - - - - - - -
28/12:30am 16.3 W 21 28 1009.0 - 3.2 - Partly cloudy - - - - -
28/12:00am 16.3 W 20 27 1009.2 - 3.2 - Mostly cloudy - - - - -
 
Date/Time
EDT
Temp
°C
Wind Pressure Rain since
9am
mm
Weather Cloud Vis
km
Sea
Height
m
Swell
Dir  Spd
kts
Gust
kts
hPa Trend Height
m
Period
s
Dir
27/11:31pm 16.4 W 21 31 1009.1 - 3.2 - Partly cloudy - - - - -
27/11:30pm 16.3 W 22 31 1009.1 - 3.2 - Partly cloudy - - - - -
27/11:20pm 16.4 W 19 29 1009.0 - 3.2 - Partly cloudy - - - - -
27/11:00pm 16.3 W 18 26 1009.2 - 3.2 - - - - - - -
27/10:30pm 16.4 W 19 27 1008.9 - 3.2 - Partly cloudy - - - - -
27/10:00pm 16.7 W 17 24 1008.8 - 3.2 - Partly cloudy - - - - -
27/09:30pm 16.7 W 18 26 1008.6 - 3.2 - - - - - - -
27/09:19pm 16.6 W 19 29 1008.5 - 3.2 - Partly cloudy - - - - -
27/09:00pm 16.8 W 21 29 1008.3 - 3.2 - Mostly clear - - - - -
27/08:30pm 16.8 W 23 33 1007.6 - 3.2 - Partly cloudy - - - - -
27/08:03pm 17.2 W 23 33 1007.2 - 3.2 - Partly cloudy - - - - -
27/08:00pm 17.2 W 24 33 1007.2 - 3.2 - Partly cloudy - - - - -
27/07:30pm 17.2 W 26 38 1006.9 - 3.2 - Partly cloudy - - - - -
27/07:00pm 17.2 W 30 40 1006.3 - 3.2 - Partly cloudy - - - - -
27/06:30pm 17.3 W 31 42 1006.0 - 3.2 - Partly cloudy - - - - -
27/06:00pm 17.7 WNW 30 40 1005.5 - 3.2 - Mostly cloudy - - - - -
27/05:38pm 18.0 WNW 29 39 1005.5 - 3.2 - Partly cloudy - - - - -
27/05:30pm 17.9 W 29 36 1005.4 - 3.2 - Partly cloudy - - - - -
27/05:03pm 17.7 W 28 38 1005.4 - 3.2 - Partly cloudy - - - - -
27/05:00pm 17.9 W 29 38 1005.3 - 3.2 - Partly cloudy - - - - -
27/04:32pm 17.6 W 27 37 1005.2 - 3.2 - Partly cloudy - - - - -
27/04:30pm 17.5 W 27 35 1005.2 - 3.2 - Partly cloudy - - - - -
27/04:00pm 17.8 WNW 25 35 1005.1 - 3.2 - Partly cloudy - - - - -
27/03:54pm 17.7 WNW 25 35 1005.3 - 3.2 - Partly cloudy - - - - -
27/03:30pm 16.0 WNW 25 33 1005.2 - 3.2 - Partly cloudy - - - - -
27/03:00pm 15.1 W 26 34 1005.0 - 3.2 Recent precip. Cloudy - - - - -
27/02:36pm 14.9 W 27 37 1004.8 - 2.6 - Partly cloudy - - - - -
27/02:30pm 15.1 W 28 37 1005.4 - 2.4 - Partly cloudy - - - - -
27/02:29pm 15.3 W 27 37 1005.5 - 2.4 - Partly cloudy - - - - -
27/02:00pm 14.8 W 27 35 1004.8 - 2.2 - Partly cloudy - - - - -
27/01:30pm 15.9 W 33 45 1004.5 - 1.8 - Partly cloudy - - - - -
27/01:25pm 15.9 W 31 45 1004.1 - 1.8 - Partly cloudy - - - - -
27/01:05pm 17.4 W 24 34 1004.1 - 1.6 - Partly cloudy - - - - -
27/01:00pm 17.6 W 25 34 1004.0 - 1.6 - Cloudy - - - - -
27/12:30pm 18.4 W 23 34 1003.8 - 1.6 - Partly cloudy - - - - -
27/12:00pm 20.3 WNW 24 35 1002.1 - 1.6 - Cloudy - - - - -
27/11:56am 20.7 WNW 20 35 1002.1 - 1.6 - Partly cloudy - - - - -
27/11:54am 20.8 NW 18 26 1002.2 - 1.6 - Partly cloudy - - - - -
27/11:30am 20.9 N 13 16 1001.5 - 1.6 - Partly cloudy - - - - -
27/11:00am 20.8 NNE 13 17 1001.5 - 1.6 - - - - - - -
27/10:30am 20.1 NE 17 22 1001.1 - 1.6 - - - - - - -
27/10:00am 19.5 ENE 17 21 1000.9 - 1.6 - Partly cloudy - - - - -
27/09:31am 18.9 ENE 18 29 1001.0 - 1.4 - Partly cloudy - - - - -
27/09:30am 19.0 ENE 17 25 1001.3 - 1.4 - Partly cloudy - - - - -
27/09:13am 19.1 ENE 18 26 1002.7 - 0.0 - Partly cloudy - - - - -
27/09:00am 18.8 ENE 23 28 1000.5 - 0.0 - Cloudy - - - - -
27/08:30am 18.7 ENE 25 31 1001.0 - 0.0 - Partly cloudy - - - - -
27/08:00am 18.5 ENE 23 28 1001.6 - 0.0 - Partly cloudy - - - - -
27/07:30am 18.4 ENE 24 29 1001.8 - 0.0 - Partly cloudy - - - - -
27/07:00am 18.4 ENE 23 28 1002.9 - 0.0 - Partly cloudy - - - - -
27/06:30am 18.2 ENE 22 26 1003.2 - 0.0 - - - - - - -
27/06:00am 18.1 ENE 20 24 1003.9 - 0.0 - Mostly cloudy - - - - -
27/05:30am 18.0 ENE 20 25 1004.7 - 0.0 - Partly cloudy - - - - -
27/05:23am 18.0 ENE 21 25 1004.4 - 0.0 - Partly cloudy - - - - -
27/05:00am 18.0 ENE 21 26 1004.7 - 0.0 - Partly cloudy - - - - -
27/04:30am 18.0 ENE 22 26 1005.4 - 0.0 - Cloudy - - - - -
27/04:00am 17.8 ENE 22 27 1005.7 - 0.0 - Cloudy - - - - -
27/03:30am 17.8 ENE 23 29 1005.8 - 0.0 - Partly cloudy - - - - -
27/03:00am 17.7 ENE 23 27 1006.8 - 0.0 - Mostly cloudy - - - - -
27/02:30am 17.5 ENE 22 28 1007.2 - 0.0 - Partly cloudy - - - - -
27/02:00am 17.3 ENE 23 28 1007.8 - 0.0 - Partly cloudy - - - - -
27/01:30am 17.5 ENE 22 26 1008.5 - 0.0 - Cloudy - - - - -
27/01:00am 17.6 ENE 22 28 1009.4 - 0.0 - Cloudy - - - - -
27/12:30am 17.7 ENE 21 26 1009.9 - 0.0 - Cloudy - - - - -
27/12:00am 17.8 ENE 23 27 1010.2 - 0.0 - Cloudy - - - - -
 
Date/Time
EDT
Temp
°C
Wind Pressure Rain since
9am
mm
Weather Cloud Vis
km
Sea
Height
m
Swell
Dir  Spd
kts
Gust
kts
hPa Trend Height
m
Period
s
Dir
26/11:30pm 17.8 NE 21 25 1010.8 - 0.0 - Cloudy - - - - -
26/11:00pm 17.6 NE 21 27 1011.1 - 0.0 - Cloudy - - - - -
26/10:30pm 17.3 ENE 22 26 1011.4 - 0.0 - Cloudy - - - - -
26/10:00pm 17.6 NE 18 23 1011.8 - 0.0 - Cloudy - - - - -
26/09:30pm 17.4 NE 20 24 1011.5 - 0.0 - Cloudy - - - - -
26/09:00pm 17.2 NE 16 20 1011.5 - 0.0 - Mostly cloudy - - - - -
26/08:52pm 17.1 NE 15 20 1011.7 - 0.0 - Cloudy - - - - -
26/08:30pm 17.3 NE 15 20 1012.0 - 0.0 - Cloudy - - - - -
26/08:00pm 17.4 NE 14 18 1012.4 - 0.0 - Partly cloudy - - - - -
26/07:30pm 16.8 NE 13 16 1012.1 - 0.0 - - - - - - -
26/07:00pm 17.3 NE 12 15 1012.3 - 0.0 - - - - - - -
26/06:30pm 18.1 NE 12 14 1012.4 - 0.0 - - - - - - -
26/06:21pm 18.1 NE 11 14 1012.7 - 0.0 - Partly cloudy - - - - -
26/06:00pm 18.4 NNE 9 11 1012.9 - 0.0 - Mostly cloudy - - - - -
26/05:53pm 18.7 NNE 9 11 1012.8 - 0.0 - Partly cloudy - - - - -
26/05:30pm 19.6 N 8 10 1012.8 - 0.0 - Partly cloudy - - - - -
26/05:23pm 19.6 N 9 11 1012.9 - 0.0 - Partly cloudy - - - - -
26/05:00pm 18.9 N 8 10 1012.9 - 0.0 - Partly cloudy - - - - -
26/04:30pm 19.1 N 9 11 1013.0 - 0.0 - Partly cloudy - - - - -
26/04:20pm 18.8 N 9 11 1013.1 - 0.0 - Partly cloudy - - - - -
26/04:00pm 20.0 N 10 12 1013.2 - 0.0 - Partly cloudy - - - - -
26/03:30pm 20.9 NNE 11 14 1013.2 - 0.0 - - - - - - -
26/03:00pm 20.7 NE 8 11 1013.3 - 0.0 - Mostly clear - - - - -
26/02:30pm 21.0 NNW 7 10 1013.6 - 0.0 - Partly cloudy - - - - -
26/02:00pm 20.8 N 6 8 1014.0 - 0.0 - Partly cloudy - - - - -
26/01:30pm 21.4 NNW 6 8 1014.4 - 0.0 - Partly cloudy - - - - -
26/01:00pm 20.9 N 5 6 1014.7 - 0.0 - Cloudy - - - - -
26/12:30pm 19.6 NNW 4 6 1015.2 - 0.0 - Cloudy - - - - -
26/12:00pm 19.3 NNW 5 7 1015.4 - 0.0 - Mostly cloudy - - - - -
26/11:40am 20.2 NNW 5 7 1015.5 - 0.0 - Partly cloudy - - - - -
26/11:30am 20.4 N 5 7 1015.5 - 0.0 - Partly cloudy - - - - -
26/11:11am 19.0 N 1 6 1015.5 - 0.0 - Partly cloudy - - - - -
26/11:00am 18.4 CALM 0 0 1015.6 - 0.0 - Partly cloudy - - - - -
26/10:30am 17.9 CALM 0 0 1015.8 - 0.0 - Partly cloudy - - - - -
26/10:06am 17.6 SE 2 4 1015.6 - 0.0 - Partly cloudy - - - - -
26/10:00am 17.6 SE 3 5 1015.5 - 0.0 - Partly cloudy - - - - -
26/09:30am 17.5 SE 3 5 1015.4 - 0.0 - Partly cloudy - - - - -
26/09:17am 17.6 ESE 1 4 1015.3 - 0.0 - Partly cloudy - - - - -
26/09:00am 17.8 CALM 0 0 1015.2 - 1.0 - - - - - - -
26/08:30am 17.0 CALM 0 0 1015.0 - 1.0 - - - - - - -
26/08:00am 15.5 CALM 0 0 1014.7 - 1.0 - Partly cloudy - - - - -
26/07:31am 15.6 CALM 0 0 1014.4 - 1.0 - Partly cloudy - - - - -
26/07:30am 15.7 CALM 0 0 1014.3 - 1.0 - Partly cloudy - - - - -
26/07:11am 16.4 CALM 0 0 1014.2 - 1.0 - Partly cloudy - - - - -
26/07:00am 16.7 CALM 0 0 1014.2 - 1.0 - - - - - - -
26/06:30am 16.7 CALM 0 0 1014.0 - 1.0 - Partly cloudy - - - - -
26/06:00am 17.0 CALM 0 0 1013.7 - 1.0 - Mostly cloudy - - - - -
26/05:40am 17.0 CALM 0 0 1013.6 - 1.0 - Partly cloudy - - - - -
26/05:30am 16.9 CALM 0 0 1013.7 - 1.0 - Partly cloudy - - - - -
26/05:05am 16.5 ESE 4 5 1013.2 - 1.0 - Partly cloudy - - - - -
26/05:00am 16.5 ESE 5 5 1013.2 - 1.0 - Partly cloudy - - - - -
26/04:49am 16.5 ESE 5 6 1013.1 - 1.0 - Partly cloudy - - - - -
26/04:32am 16.4 ESE 4 5 1013.1 - 1.0 - Partly cloudy - - - - -
26/04:30am 16.3 ESE 4 5 1013.1 - 1.0 - Partly cloudy - - - - -
26/04:00am 16.5 CALM 0 0 1013.2 - 1.0 - Cloudy - - - - -
26/03:30am 16.8 E 3 5 1013.3 - 1.0 - Cloudy - - - - -
26/03:00am 16.9 CALM 0 0 1013.7 - 1.0 - Cloudy - - - - -
26/02:30am 16.9 CALM 0 0 1014.0 - 1.0 - Cloudy - - - - -
26/02:00am 16.8 E 5 5 1013.8 - 1.0 - Cloudy - - - - -
26/01:30am 16.6 E 6 6 1013.8 - 1.0 - Cloudy - - - - -
26/01:00am 16.7 E 5 6 1013.6 - 1.0 - Cloudy - - - - -
26/12:30am 16.7 E 5 5 1013.9 - 1.0 - Cloudy - - - - -
26/12:00am 16.7 E 6 7 1013.8 - 1.0 - Cloudy - - - - -
 
Date/Time
EDT
Temp
°C
Wind Pressure Rain since
9am
mm
Weather Cloud Vis
km
Sea
Height
m
Swell
Dir  Spd
kts
Gust
kts
hPa Trend Height
m
Period
s
Dir
25/11:30pm 16.2 E 6 7 1014.0 - 1.0 - Partly cloudy - - - - -
25/11:00pm 16.3 E 6 7 1013.9 - 1.0 - Partly cloudy - - - - -
25/10:30pm 16.4 E 9 10 1013.5 - 1.0 - - - - - - -
25/10:00pm 16.7 E 10 11 1013.1 - 1.0 - - - - - - -
25/09:30pm 16.6 E 10 11 1012.9 - 1.0 - - - - - - -
25/09:00pm 16.9 E 10 11 1012.7 - 1.0 - Partly cloudy - - - - -
25/08:30pm 17.4 E 10 11 1012.4 - 1.0 - Cloudy - - - - -
25/08:00pm 17.5 E 11 12 1012.2 - 1.0 - Cloudy - - - - -
25/07:30pm 17.6 E 11 13 1012.0 - 1.0 - Cloudy - - - - -
25/07:00pm 17.7 E 11 14 1011.7 - 1.0 - Partly cloudy - - - - -
25/06:30pm 17.9 E 12 15 1011.6 - 1.0 - Partly cloudy - - - - -
25/06:09pm 18.1 E 11 14 1011.5 - 1.0 - Partly cloudy - - - - -
25/06:00pm 18.1 E 11 14 1011.4 - 1.0 - Cloudy - - - - -
25/05:30pm 18.7 E 13 16 1011.0 - 1.0 - Partly cloudy - - - - -
25/05:23pm 19.0 E 13 15 1011.0 - 1.0 - Partly cloudy - - - - -
25/05:00pm 19.6 ENE 15 18 1010.8 - 1.0 - Partly cloudy - - - - -
25/04:30pm 19.9 E 16 18 1010.8 - 1.0 - Partly cloudy - - - - -
25/04:17pm 19.9 ENE 16 19 1010.7 - 1.0 - Partly cloudy - - - - -
25/04:00pm 20.2 E 16 20 1010.8 - 1.0 - Partly cloudy - - - - -
25/03:30pm 20.0 E 17 21 1010.9 - 1.0 - Partly cloudy - - - - -
25/03:00pm 20.3 ENE 16 21 1011.0 - 1.0 - Cloudy - - - - -
25/02:30pm 18.9 ENE 16 20 1011.3 - 1.0 - Partly cloudy - - - - -
25/02:00pm 19.2 ENE 17 23 1011.4 - 1.0 - Partly cloudy - - - - -
25/01:38pm 19.8 ENE 17 22 1011.4 - 1.0 - Partly cloudy - - - - -
25/01:30pm 19.5 ENE 20 25 1011.5 - 1.0 - Partly cloudy - - - - -
25/01:17pm 18.5 ENE 21 27 1011.5 - 1.0 - Partly cloudy - - - - -
25/01:00pm 18.4 ENE 19 24 1011.7 - 1.0 - Partly cloudy - - - - -
25/12:30pm 18.1 ENE 21 26 1012.1 - 1.0 - Cloudy - - - - -
25/12:00pm 17.7 ENE 21 26 1012.0 - 1.0 Recent precip. Cloudy - - - - -
25/11:39am 17.5 ENE 20 25 1012.2 - 1.0 - Partly cloudy - - - - -
25/11:30am 17.3 ENE 22 28 1012.0 - 1.0 - Partly cloudy - - - - -
25/11:00am 17.1 ENE 23 27 1012.2 - 0.8 - Partly cloudy - - - - -
25/10:43am 17.0 ENE 21 29 1012.2 - 0.8 - Partly cloudy - - - - -
25/10:30am 17.0 ENE 23 29 1012.0 - 0.8 - Partly cloudy - - - - -
25/10:00am 16.9 ENE 20 25 1012.8 - 0.2 - Partly cloudy - - - - -
25/09:32am 16.8 ENE 21 27 1012.3 - 0.0 - Partly cloudy - - - - -
25/09:30am 16.9 ENE 22 27 1012.3 - 0.0 - Partly cloudy - - - - -
25/09:01am 16.7 ENE 24 29 1011.9 - 0.0 - Partly cloudy - - - - -
25/09:00am 16.7 ENE 24 29 1011.9 - 1.0 Recent precip. Cloudy - - - - -
25/08:30am 16.6 ENE 22 28 1012.4 - 0.6 - Partly cloudy - - - - -
25/08:29am 16.6 ENE 21 28 1012.4 - 0.4 - Partly cloudy - - - - -
25/08:00am 16.4 ENE 19 24 1012.9 - 0.4 - Partly cloudy - - - - -
25/07:40am 16.2 E 19 24 1012.7 - 0.4 - Partly cloudy - - - - -
25/07:30am 16.1 E 19 24 1012.8 - 0.4 - Partly cloudy - - - - -
25/07:00am 16.3 E 17 21 1013.2 - 0.0 - Partly cloudy - - - - -
25/06:57am 16.3 E 18 21 1013.2 - 0.0 - Partly cloudy - - - - -
25/06:30am 16.3 E 21 27 1012.9 - 0.0 - Partly cloudy - - - - -
25/06:00am 16.4 ENE 23 29 1012.8 - 0.0 - Cloudy - - - - -
25/05:30am 16.6 ENE 20 27 1013.6 - 0.0 - Partly cloudy - - - - -

Other Formats:

Comma delimited format used in spreadsheet applications
http://www.bom.gov.au/fwo/IDV60701/IDV60701.95954.axf

JavaScript Object Notation format (JSON) in row-major order
http://www.bom.gov.au/fwo/IDV60701/IDV60701.95954.json